Cheyenne, WY (82003)

12:43 AM MDT on October 23, 2014 (GMT -0600)
W7MGB - Monterey Heights | Change Station
CLOSE
Current Station
Personal Weather Station
Location: Cheyenne, WY
Elevation: 6240 ft
Nearby Weather Stations

Elev 6240 ft 41.18 °N, 104.82 °W | Updated 2 minutes ago

Clear
Clear
45.0 °F
Feels Like 45 °F
N
2.5
Wind Variable Wind from WSW
Gusts 2.9 mph

Today
High -- | Low -- °F
--% Chance of Precip.
Yesterday
High -- | Low -- °F
Precip. -- in
7:19 AM 6:06 PM
Waning Crescent, 0% visible
Pressure 30.04 in
Visibility 10.0 miles
Clouds Clear
Windchill 45 °F
Dew Point 24 °F
Humidity 44%
Rainfall 0.00 in
Snow Depth Not available.
UV 0 out of 12
Pollen 2.70 out of 12
Air Quality Not available.
Flu Activity Sporadic
METAR KCYS 230553Z AUTO 18006KT 10SM CLR 06/M02 A3017 RMK AO2 SLP171 T00561017 10150 20056 50000

More Conditions Fewer Conditions

Pressure 30.04 in
Visibility 10.0 miles
Clouds Clear
Windchill 45 °F
Dew Point 24 °F
Humidity 44%
Rainfall 0.00 in
Snow Depth Not available.
UV 0 out of 12
Pollen 2.70 out of 12
Air Quality Not available.
Flu Activity Sporadic
METAR KCYS 230553Z AUTO 18006KT 10SM CLR 06/M02 A3017 RMK AO2 SLP171 T00561017 10150 20056 50000

More Conditions Fewer Conditions

10-Day Weather Forecast

Almanac

Astronomy

Oct. 23, 2014 Rise Set
Actual Time 7:19 AM MDT 6:06 PM MDT
Civil Twilight 6:51 AM MDT 6:34 PM MDT
Nautical Twilight 6:19 AM MDT 7:06 PM MDT
Astronomical Twilight 5:47 AM MDT 7:38 PM MDT
Moon 7:01 AM MDT 6:09 PM MDT
Length of Visible Light 11h 42m
Length of Day
10h 46m
Tomorrow will be 2m 33s shorter.
Waning Crescent, 0% of the Moon is Illuminated
Today
Waning Crescent
Oct 23
New
Oct 30
First Quarter
Nov 6
Full
Nov 14
Last Quarter

Community

WunderPhotos

Upload Photos

1,764,194 photos uploaded!

Nearby

Snow Depth

Station Depth Elevation
Crow Creek 1 in 8330 ft
Whiskey Park 0 in 8950 ft
Cinnabar Park 1 in 9690 ft
Brooklyn Lake 1 in 10220 ft
Sand Lake 5 in 10050 ft

Earthquake Activity

City Distance Mag. Time & Date
No recent earthquake activity has been reported nearby.
Minimum magnitude displayed is 2.5.

Coastal Water Temperatures

Place Temperature
No Stations Reporting

Nearby Weather Stations